createdAt,value
2018-02-16T00:00:37.708Z,14.82
2018-02-16T00:03:05.620Z,14.10
2018-02-16T00:05:33.516Z,13.70
2018-02-16T00:08:02.444Z,11.30
2018-02-16T00:10:30.373Z,12.63
2018-02-16T00:12:59.248Z,12.18
2018-02-16T00:15:27.176Z,11.68
2018-02-16T00:17:55.075Z,12.93
2018-02-16T00:20:22.964Z,12.35
2018-02-16T00:22:50.877Z,11.73
2018-02-16T00:25:18.785Z,12.00
2018-02-16T00:27:46.692Z,11.00
2018-02-16T00:30:14.580Z,12.60
2018-02-16T00:32:42.475Z,11.18
2018-02-16T00:35:10.357Z,12.05
2018-02-16T00:37:38.250Z,11.68
2018-02-16T00:40:06.145Z,11.90
2018-02-16T00:42:34.040Z,12.32
2018-02-16T00:45:01.936Z,10.98
2018-02-16T00:47:29.836Z,11.43
2018-02-16T00:49:57.731Z,12.23
2018-02-16T00:52:25.604Z,12.23
2018-02-16T00:54:53.511Z,12.57
2018-02-16T00:57:21.440Z,11.75
2018-02-16T00:59:49.355Z,11.88
2018-02-16T01:02:17.276Z,13.00
2018-02-16T01:04:45.159Z,11.52
2018-02-16T01:07:13.053Z,12.10
2018-02-16T01:09:40.948Z,14.07
2018-02-16T01:12:08.832Z,13.15
2018-02-16T01:14:36.728Z,14.30
2018-02-16T01:17:04.620Z,14.20
2018-02-16T01:19:32.498Z,15.90
2018-02-16T01:22:00.405Z,18.05
2018-02-16T01:24:28.314Z,15.23
2018-02-16T01:26:56.200Z,15.52
2018-02-16T01:29:24.096Z,16.37
2018-02-16T01:31:51.992Z,17.40
2018-02-16T01:34:19.874Z,14.85
2018-02-16T01:36:47.784Z,15.93
2018-02-16T01:39:15.676Z,13.98
2018-02-16T01:41:43.564Z,15.93
2018-02-16T01:44:11.452Z,15.85
2018-02-16T01:46:39.344Z,15.43
2018-02-16T01:49:07.235Z,15.13
2018-02-16T01:51:35.149Z,15.23
2018-02-16T01:54:03.048Z,14.50
2018-02-16T01:56:30.951Z,15.55
2018-02-16T01:58:58.854Z,15.57
2018-02-16T02:01:26.763Z,15.77
2018-02-16T02:03:54.658Z,14.85
2018-02-16T02:06:22.556Z,15.35
2018-02-16T02:08:50.456Z,15.10
2018-02-16T02:11:18.352Z,15.68
2018-02-16T02:13:46.257Z,14.80
2018-02-16T02:16:14.152Z,14.25
2018-02-16T02:18:42.035Z,15.35
2018-02-16T02:21:10.952Z,14.18
2018-02-16T02:23:38.865Z,14.80
2018-02-16T02:26:06.752Z,13.65
2018-02-16T02:28:35.756Z,14.80
2018-02-16T02:31:03.644Z,12.75
2018-02-16T02:33:31.541Z,13.82
2018-02-16T02:35:59.436Z,14.32
2018-02-16T02:38:27.336Z,13.15
2018-02-16T02:40:55.212Z,12.57
2018-02-16T02:43:23.108Z,14.98
2018-02-16T02:45:50.992Z,12.60
2018-02-16T02:48:18.876Z,12.35
2018-02-16T02:50:46.788Z,12.45
2018-02-16T02:53:14.700Z,13.07
2018-02-16T02:55:42.595Z,12.60
2018-02-16T02:58:11.573Z,11.30
2018-02-16T03:00:39.507Z,11.55
2018-02-16T03:03:07.439Z,12.35
2018-02-16T03:05:35.325Z,12.82
2018-02-16T03:08:03.248Z,12.13
2018-02-16T03:10:31.140Z,12.27
2018-02-16T03:12:59.037Z,11.77
2018-02-16T03:15:26.955Z,10.57
2018-02-16T03:17:54.845Z,12.73
2018-02-16T03:20:22.788Z,11.95
2018-02-16T03:22:50.705Z,11.65
2018-02-16T03:25:18.584Z,11.75
2018-02-16T03:27:46.660Z,10.77
2018-02-16T03:30:14.580Z,10.32
2018-02-16T03:32:42.464Z,10.80
2018-02-16T03:35:10.363Z,11.45
2018-02-16T03:37:38.329Z,9.45
2018-02-16T03:40:07.268Z,11.38
2018-02-16T03:42:35.176Z,11.35
2018-02-16T03:45:03.076Z,10.30
2018-02-16T03:47:30.984Z,10.88
2018-02-16T03:49:59.073Z,9.88
2018-02-16T03:52:27.052Z,9.63
2018-02-16T03:54:54.944Z,10.55
2018-02-16T03:57:22.821Z,10.68
2018-02-16T03:59:50.731Z,9.40
2018-02-16T04:02:18.612Z,9.70
2018-02-16T04:04:46.496Z,10.40
2018-02-16T04:07:14.412Z,10.05
2018-02-16T04:09:42.304Z,9.85
2018-02-16T04:12:10.196Z,9.52
2018-02-16T04:14:38.120Z,9.15
2018-02-16T04:17:06.018Z,10.73
2018-02-16T04:19:33.916Z,10.82
2018-02-16T04:22:01.828Z,9.18
2018-02-16T04:24:29.710Z,10.90
2018-02-16T04:26:57.643Z,11.10
2018-02-16T04:29:25.535Z,10.95
2018-02-16T04:31:53.411Z,9.30
2018-02-16T04:34:21.357Z,10.88
2018-02-16T04:36:49.254Z,9.55
2018-02-16T04:39:17.132Z,9.82
2018-02-16T04:41:45.024Z,10.80
2018-02-16T04:44:12.928Z,10.48
2018-02-16T04:46:40.828Z,10.10
2018-02-16T04:49:08.728Z,11.27
2018-02-16T04:51:36.612Z,9.60
2018-02-16T04:54:04.514Z,9.38
2018-02-16T04:56:32.408Z,11.20
2018-02-16T04:59:00.316Z,10.00
2018-02-16T05:01:28.226Z,9.27
2018-02-16T05:03:57.105Z,10.38
2018-02-16T05:06:25.008Z,10.65
2018-02-16T05:08:52.903Z,10.38
2018-02-16T05:11:20.788Z,10.13
2018-02-16T05:13:48.697Z,10.18
2018-02-16T05:16:16.595Z,10.75
2018-02-16T05:18:44.484Z,9.43
2018-02-16T05:21:12.391Z,10.25
2018-02-16T05:23:40.267Z,10.85
2018-02-16T05:26:08.164Z,10.38
2018-02-16T05:28:36.077Z,10.05
2018-02-16T05:31:03.967Z,10.77
2018-02-16T05:33:32.931Z,10.48
2018-02-16T05:36:00.905Z,10.30
2018-02-16T05:38:28.793Z,9.05
2018-02-16T05:40:56.696Z,9.40
2018-02-16T05:43:24.605Z,10.40
2018-02-16T05:45:52.491Z,10.90
2018-02-16T05:48:20.400Z,9.18
2018-02-16T05:50:48.356Z,10.48
2018-02-16T05:53:16.238Z,10.20
2018-02-16T05:55:44.142Z,9.32
2018-02-16T05:58:12.036Z,11.05
2018-02-16T06:00:39.918Z,10.77
2018-02-16T06:03:07.824Z,9.57
2018-02-16T06:05:35.764Z,10.00
2018-02-16T06:08:03.648Z,9.65
2018-02-16T06:10:31.551Z,11.80
2018-02-16T06:12:59.444Z,10.95
2018-02-16T06:15:27.340Z,11.38
2018-02-16T06:17:55.216Z,10.23
2018-02-16T06:20:23.120Z,10.07
2018-02-16T06:22:51.020Z,12.52
2018-02-16T06:25:18.934Z,10.65
2018-02-16T06:27:46.839Z,11.60
2018-02-16T06:30:14.759Z,11.40
2018-02-16T06:32:42.644Z,12.35
2018-02-16T06:35:11.572Z,12.75
2018-02-16T06:37:39.474Z,11.73
2018-02-16T06:40:07.376Z,12.75
2018-02-16T06:42:35.268Z,13.70
2018-02-16T06:45:03.163Z,11.50
2018-02-16T06:47:31.055Z,12.30
2018-02-16T06:49:58.952Z,12.10
2018-02-16T06:52:26.860Z,12.37
2018-02-16T06:54:54.756Z,12.48
2018-02-16T06:57:22.648Z,13.30
2018-02-16T06:59:50.549Z,12.55
2018-02-16T07:02:19.495Z,11.98
2018-02-16T07:04:47.424Z,11.07
2018-02-16T07:07:15.336Z,10.55
2018-02-16T07:09:43.220Z,11.25
2018-02-16T07:12:11.120Z,12.43
2018-02-16T07:14:39.033Z,10.27
2018-02-16T07:17:06.918Z,10.35
2018-02-16T07:19:34.824Z,8.88
2018-02-16T07:22:02.731Z,9.00
2018-02-16T07:24:30.624Z,10.52
2018-02-16T07:26:58.527Z,10.63
2018-02-16T07:29:26.436Z,9.85
2018-02-16T07:31:54.322Z,10.13
2018-02-16T07:34:22.204Z,12.52
2018-02-16T07:36:50.115Z,9.82
2018-02-16T07:39:17.999Z,10.55
2018-02-16T07:41:45.913Z,11.15
2018-02-16T07:44:13.816Z,8.15
2018-02-16T07:46:41.700Z,11.48
2018-02-16T07:49:09.592Z,10.38
2018-02-16T07:51:37.503Z,12.65
2018-02-16T07:54:05.399Z,11.38
2018-02-16T07:56:33.292Z,12.02
2018-02-16T07:59:01.192Z,11.43
2018-02-16T08:01:29.090Z,10.73
2018-02-16T08:03:56.984Z,12.15
2018-02-16T08:06:24.888Z,10.20
2018-02-16T08:08:52.772Z,10.07
2018-02-16T08:11:20.676Z,9.05
2018-02-16T08:13:48.575Z,9.38
2018-02-16T08:16:17.486Z,10.43
2018-02-16T08:18:45.394Z,10.68
2018-02-16T08:21:13.313Z,10.48
2018-02-16T08:23:41.212Z,13.38
2018-02-16T08:26:09.136Z,12.77
2018-02-16T08:28:37.020Z,12.60
2018-02-16T08:31:04.936Z,12.52
2018-02-16T08:33:32.855Z,15.13
2018-02-16T08:36:00.769Z,12.15
2018-02-16T08:38:28.679Z,12.27
2018-02-16T08:40:57.628Z,11.02
2018-02-16T08:43:25.540Z,10.50
2018-02-16T08:45:53.435Z,10.77
2018-02-16T08:48:21.352Z,9.75
2018-02-16T08:50:49.239Z,11.98
2018-02-16T08:53:17.128Z,10.85
2018-02-16T08:55:45.054Z,10.48
2018-02-16T08:58:12.949Z,10.55
2018-02-16T09:00:40.855Z,11.40
2018-02-16T09:03:08.784Z,9.77
2018-02-16T09:05:36.667Z,11.02
2018-02-16T09:08:04.559Z,11.10
2018-02-16T09:10:32.476Z,11.75
2018-02-16T09:13:01.443Z,11.90
2018-02-16T09:15:29.324Z,11.80
2018-02-16T09:17:57.244Z,10.57
2018-02-16T09:20:25.120Z,9.73
2018-02-16T09:22:53.021Z,8.95
2018-02-16T09:25:20.932Z,10.50
2018-02-16T09:27:48.832Z,7.78
2018-02-16T09:30:16.744Z,9.77
2018-02-16T09:32:44.652Z,9.82
2018-02-16T09:35:12.544Z,12.30
2018-02-16T09:37:42.974Z,12.82
2018-02-16T09:40:11.454Z,12.98
2018-02-16T09:42:39.332Z,12.25
2018-02-16T09:45:07.245Z,12.27
2018-02-16T09:47:35.158Z,11.85
2018-02-16T09:50:03.058Z,13.02
2018-02-16T09:52:30.958Z,11.75
2018-02-16T09:54:59.688Z,11.02
2018-02-16T09:57:28.567Z,12.30
2018-02-16T09:59:56.475Z,11.98
2018-02-16T10:02:24.384Z,12.93
2018-02-16T10:04:52.280Z,12.65
2018-02-16T10:07:20.176Z,11.25
2018-02-16T10:09:48.070Z,11.85
2018-02-16T10:12:15.948Z,12.55
2018-02-16T10:14:43.936Z,13.38
2018-02-16T10:17:11.839Z,11.07
2018-02-16T10:19:39.748Z,12.50
2018-02-16T10:22:07.684Z,11.95
2018-02-16T10:24:35.663Z,11.25
2018-02-16T10:27:03.583Z,11.00
2018-02-16T10:29:31.476Z,10.88
2018-02-16T10:31:59.368Z,10.77
2018-02-16T10:34:27.268Z,11.80
2018-02-16T10:36:55.177Z,10.95
2018-02-16T10:39:23.064Z,10.65
2018-02-16T10:41:50.997Z,12.15
2018-02-16T10:44:18.895Z,17.45
2018-02-16T10:46:46.776Z,16.27
2018-02-16T10:49:15.764Z,16.05
2018-02-16T10:51:43.668Z,17.15
2018-02-16T10:54:11.567Z,15.13
2018-02-16T10:56:39.473Z,14.52
2018-02-16T10:59:07.356Z,15.93
2018-02-16T11:01:41.543Z,15.63
2018-02-16T11:04:15.536Z,15.60
2018-02-16T11:06:48.412Z,14.87
2018-02-16T11:09:20.188Z,15.07
2018-02-16T11:11:48.084Z,15.65
2018-02-16T11:14:16.016Z,12.95
2018-02-16T11:16:43.906Z,14.55
2018-02-16T11:19:11.816Z,15.52
2018-02-16T11:21:39.746Z,14.35
2018-02-16T11:24:07.644Z,15.07
2018-02-16T11:26:35.583Z,14.82
2018-02-16T11:29:03.502Z,14.68
2018-02-16T11:31:31.396Z,15.73
2018-02-16T11:33:59.304Z,12.45
2018-02-16T11:36:27.199Z,12.20
2018-02-16T11:38:55.088Z,13.93
2018-02-16T11:41:23.000Z,13.18
2018-02-16T11:43:50.919Z,14.57
2018-02-16T11:46:18.820Z,13.43
2018-02-16T11:48:46.721Z,13.40
2018-02-16T11:51:14.631Z,13.07
2018-02-16T11:53:42.553Z,12.90
2018-02-16T11:56:10.468Z,14.50
2018-02-16T11:58:38.371Z,14.70
2018-02-16T12:01:06.273Z,13.43
2018-02-16T12:03:34.188Z,13.95
2018-02-16T12:06:02.092Z,13.25
2018-02-16T12:08:29.980Z,13.10
2018-02-16T12:10:57.885Z,14.95
2018-02-16T12:13:25.792Z,12.65
2018-02-16T12:15:53.692Z,12.88
2018-02-16T12:18:21.620Z,13.20
2018-02-16T12:20:49.532Z,15.05
2018-02-16T12:23:17.426Z,13.35
2018-02-16T12:25:45.340Z,11.77
2018-02-16T12:28:13.254Z,13.23
2018-02-16T12:30:41.139Z,15.25
2018-02-16T12:33:09.052Z,13.60
2018-02-16T12:35:36.960Z,12.32
2018-02-16T12:38:04.876Z,14.65
2018-02-16T12:40:32.793Z,14.95
2018-02-16T12:43:00.696Z,15.07
2018-02-16T12:45:28.599Z,13.50
2018-02-16T12:47:56.504Z,14.95
2018-02-16T12:50:25.488Z,14.90
2018-02-16T12:52:53.388Z,15.25
2018-02-16T12:55:21.304Z,15.48
2018-02-16T12:57:49.200Z,14.95
2018-02-16T13:00:17.948Z,13.27
2018-02-16T13:02:45.842Z,14.25
2018-02-16T13:05:13.768Z,14.35
2018-02-16T13:07:41.684Z,13.48
2018-02-16T13:10:09.572Z,13.25
2018-02-16T13:12:37.492Z,16.17
2018-02-16T13:15:05.409Z,13.40
2018-02-16T13:17:33.296Z,13.20
2018-02-16T13:20:01.205Z,12.85
2018-02-16T13:22:29.128Z,15.73
2018-02-16T13:24:57.008Z,16.00
2018-02-16T13:27:24.913Z,14.38
2018-02-16T13:29:52.836Z,14.73
2018-02-16T13:32:20.747Z,12.70
2018-02-16T13:34:48.648Z,12.68
2018-02-16T13:37:17.564Z,11.75
2018-02-16T13:39:45.516Z,12.35
2018-02-16T13:42:13.443Z,12.40
2018-02-16T13:44:41.364Z,12.60
2018-02-16T13:47:09.273Z,11.40
2018-02-16T13:49:37.179Z,10.18
2018-02-16T13:52:05.084Z,7.25
2018-02-16T13:54:32.995Z,6.20
2018-02-16T13:57:00.902Z,5.55
2018-02-16T13:59:28.806Z,6.72
2018-02-16T14:01:56.708Z,6.80
2018-02-16T14:04:24.627Z,6.70
2018-02-16T14:06:53.508Z,5.97
2018-02-16T14:09:21.467Z,5.80
2018-02-16T14:11:49.376Z,5.50
2018-02-16T14:14:17.261Z,5.47
2018-02-16T14:16:45.164Z,6.65
2018-02-16T14:19:13.069Z,5.78
2018-02-16T14:21:40.956Z,4.32
2018-02-16T14:24:08.864Z,5.25
2018-02-16T14:26:36.772Z,5.90
2018-02-16T14:29:04.660Z,6.45
2018-02-16T14:31:32.567Z,6.60
2018-02-16T14:34:00.448Z,7.20
2018-02-16T14:36:28.340Z,6.40
2018-02-16T14:38:56.266Z,6.47
2018-02-16T14:41:24.144Z,4.62
2018-02-16T14:43:52.038Z,5.53
2018-02-16T14:46:19.960Z,4.90
2018-02-16T14:48:47.857Z,4.72
2018-02-16T14:51:15.744Z,4.93
2018-02-16T14:53:43.667Z,4.37
2018-02-16T14:56:11.560Z,4.72
2018-02-16T14:58:39.456Z,3.90
2018-02-16T15:01:07.368Z,4.37
2018-02-16T15:03:35.284Z,5.05
2018-02-16T15:06:03.169Z,4.40
2018-02-16T15:08:31.102Z,4.70
2018-02-16T15:11:00.006Z,4.15
2018-02-16T15:13:27.904Z,4.32
2018-02-16T15:15:55.816Z,4.85
2018-02-16T15:18:23.703Z,4.25
2018-02-16T15:20:51.588Z,4.40
2018-02-16T15:23:19.524Z,4.20
2018-02-16T15:25:47.415Z,3.75
2018-02-16T15:28:15.288Z,3.60
2018-02-16T15:30:43.196Z,3.50
2018-02-16T15:33:11.107Z,2.92
2018-02-16T15:35:38.997Z,3.37
2018-02-16T15:38:06.912Z,3.25
2018-02-16T15:40:34.792Z,3.70
2018-02-16T15:43:02.680Z,3.47
2018-02-16T15:45:30.608Z,3.55
2018-02-16T15:47:58.507Z,4.22
2018-02-16T15:50:26.411Z,3.80
2018-02-16T15:52:54.328Z,3.20
2018-02-16T15:55:22.212Z,3.53
2018-02-16T15:57:50.096Z,3.00
2018-02-16T16:00:18.017Z,3.40
2018-02-16T16:02:45.896Z,2.78
2018-02-16T16:05:14.848Z,3.62
2018-02-16T16:07:42.752Z,3.83
2018-02-16T16:10:10.628Z,3.50
2018-02-16T16:12:38.512Z,3.30
2018-02-16T16:15:06.424Z,3.40
2018-02-16T16:17:34.308Z,3.70
2018-02-16T16:20:02.208Z,3.40
2018-02-16T16:22:31.239Z,3.50
2018-02-16T16:24:59.120Z,2.80
2018-02-16T16:27:27.008Z,2.97
2018-02-16T16:29:54.916Z,3.75
2018-02-16T16:32:22.801Z,2.85
2018-02-16T16:34:50.684Z,3.15
2018-02-16T16:37:18.607Z,3.37
2018-02-16T16:39:46.492Z,2.95
2018-02-16T16:42:14.490Z,3.62
2018-02-16T16:44:42.408Z,3.45
2018-02-16T16:47:10.294Z,4.00
2018-02-16T16:49:38.240Z,3.90
2018-02-16T16:52:06.161Z,3.60
2018-02-16T16:54:34.048Z,4.80
2018-02-16T16:57:01.936Z,4.00
2018-02-16T16:59:29.869Z,3.10
2018-02-16T17:01:57.760Z,3.78
2018-02-16T17:04:25.652Z,4.25
2018-02-16T17:06:53.564Z,4.05
2018-02-16T17:09:21.470Z,3.95
2018-02-16T17:11:49.364Z,3.50
2018-02-16T17:14:17.279Z,3.22
2018-02-16T17:16:45.172Z,2.95
2018-02-16T17:19:13.067Z,3.40
2018-02-16T17:21:41.002Z,3.75
2018-02-16T17:24:08.899Z,3.40
2018-02-16T17:26:36.783Z,3.55
2018-02-16T17:29:04.708Z,3.22
2018-02-16T17:31:32.596Z,3.20
2018-02-16T17:34:00.480Z,4.10
2018-02-16T17:36:28.384Z,3.67
2018-02-16T17:38:56.277Z,4.15
2018-02-16T17:41:24.161Z,3.47
2018-02-16T17:43:52.100Z,3.30
2018-02-16T17:46:21.057Z,2.50
2018-02-16T17:48:48.935Z,2.85
2018-02-16T17:51:16.844Z,3.70
2018-02-16T17:53:44.727Z,4.47
2018-02-16T17:56:12.625Z,4.07
2018-02-16T17:58:40.536Z,4.60
2018-02-16T18:01:08.456Z,4.35
2018-02-16T18:03:36.347Z,3.90
2018-02-16T18:06:04.255Z,4.65
2018-02-16T18:08:32.160Z,4.85
2018-02-16T18:11:00.066Z,4.65
2018-02-16T18:13:31.291Z,4.95
2018-02-16T18:15:59.178Z,5.32
2018-02-16T18:18:27.076Z,5.45
2018-02-16T18:20:54.999Z,4.20
2018-02-16T18:23:22.900Z,6.60
2018-02-16T18:25:50.808Z,4.72
2018-02-16T18:28:18.688Z,5.03
2018-02-16T18:30:46.586Z,5.43
2018-02-16T18:33:15.531Z,5.93
2018-02-16T18:35:43.412Z,5.57
2018-02-16T18:38:11.316Z,5.05
2018-02-16T18:40:39.219Z,4.50
2018-02-16T18:43:07.104Z,6.05
2018-02-16T18:45:35.016Z,5.62
2018-02-16T18:48:02.932Z,5.00
2018-02-16T18:50:30.823Z,4.95
2018-02-16T18:52:58.720Z,5.75
2018-02-16T18:55:27.456Z,5.60
2018-02-16T18:57:55.444Z,5.85
2018-02-16T19:00:24.425Z,5.70
2018-02-16T19:02:53.009Z,4.15
2018-02-16T19:05:20.908Z,3.95
2018-02-16T19:07:48.808Z,5.00
2018-02-16T19:10:16.716Z,3.62
2018-02-16T19:12:44.606Z,3.75
2018-02-16T19:15:12.500Z,4.22
2018-02-16T19:17:40.403Z,4.50
2018-02-16T19:20:08.337Z,4.22
2018-02-16T19:22:36.241Z,3.85
2018-02-16T19:25:04.142Z,3.78
2018-02-16T19:27:32.028Z,4.35
2018-02-16T19:29:59.929Z,3.72
2018-02-16T19:32:27.846Z,3.50
2018-02-16T19:34:55.914Z,4.37
2018-02-16T19:37:23.837Z,3.55
2018-02-16T19:39:51.758Z,4.62
2018-02-16T19:42:19.640Z,4.28
2018-02-16T19:44:47.528Z,2.92
2018-02-16T19:47:15.560Z,4.30
2018-02-16T19:49:43.457Z,3.37
2018-02-16T19:52:11.349Z,2.90
2018-02-16T19:54:39.256Z,4.75
2018-02-16T19:57:07.143Z,3.42
2018-02-16T19:59:35.048Z,4.25
2018-02-16T20:02:02.968Z,4.32
2018-02-16T20:04:30.875Z,4.95
2018-02-16T20:06:59.832Z,4.40
2018-02-16T20:09:27.744Z,3.90
2018-02-16T20:11:55.660Z,4.12
2018-02-16T20:14:23.556Z,3.72
2018-02-16T20:16:51.548Z,3.35
2018-02-16T20:19:19.436Z,3.55
2018-02-16T20:21:47.332Z,4.78
2018-02-16T20:24:15.243Z,5.05
2018-02-16T20:26:43.140Z,4.80
2018-02-16T20:29:11.026Z,5.82
2018-02-16T20:31:38.929Z,4.53
2018-02-16T20:34:06.849Z,4.68
2018-02-16T20:36:34.788Z,4.30
2018-02-16T20:39:02.796Z,4.68
2018-02-16T20:41:31.737Z,4.12
2018-02-16T20:43:59.641Z,4.70
2018-02-16T20:46:27.571Z,5.35
2018-02-16T20:48:55.472Z,4.47
2018-02-16T20:51:23.597Z,4.82
2018-02-16T20:53:51.687Z,5.00
2018-02-16T20:56:19.568Z,4.00
2018-02-16T20:58:47.500Z,3.87
2018-02-16T21:01:15.416Z,3.95
2018-02-16T21:03:43.320Z,4.03
2018-02-16T21:06:11.228Z,5.70
2018-02-16T21:08:39.155Z,4.30
2018-02-16T21:11:07.065Z,4.70
2018-02-16T21:13:34.970Z,6.00
2018-02-16T21:16:02.874Z,5.18
2018-02-16T21:18:30.776Z,4.72
2018-02-16T21:20:58.680Z,4.85
2018-02-16T21:23:26.592Z,4.85
2018-02-16T21:25:54.476Z,5.35
2018-02-16T21:28:22.369Z,3.95
2018-02-16T21:30:50.264Z,4.45
2018-02-16T21:33:18.160Z,3.37
2018-02-16T21:35:46.096Z,4.32
2018-02-16T21:38:14.057Z,4.57
2018-02-16T21:40:41.981Z,4.87
2018-02-16T21:43:09.899Z,5.15
2018-02-16T21:45:37.796Z,4.00
2018-02-16T21:48:05.736Z,3.95
2018-02-16T21:50:33.616Z,4.10
2018-02-16T21:53:01.539Z,4.18
2018-02-16T21:55:29.428Z,4.53
2018-02-16T21:57:57.332Z,5.62
2018-02-16T22:00:25.244Z,5.55
2018-02-16T22:02:53.136Z,4.62
2018-02-16T22:05:21.020Z,5.05
2018-02-16T22:07:48.928Z,4.22
2018-02-16T22:10:16.813Z,4.93
2018-02-16T22:12:44.712Z,5.50
2018-02-16T22:15:13.680Z,4.65
2018-02-16T22:17:41.556Z,4.07
2018-02-16T22:20:09.457Z,5.10
2018-02-16T22:22:37.374Z,5.47
2018-02-16T22:25:05.300Z,5.45
2018-02-16T22:27:33.192Z,5.20
2018-02-16T22:30:01.100Z,5.28
2018-02-16T22:32:29.004Z,5.10
2018-02-16T22:34:56.903Z,5.97
2018-02-16T22:37:24.800Z,6.32
2018-02-16T22:39:52.704Z,5.07
2018-02-16T22:42:20.612Z,5.10
2018-02-16T22:44:48.544Z,4.15
2018-02-16T22:47:16.503Z,5.82
2018-02-16T22:49:44.555Z,4.75
2018-02-16T22:52:12.464Z,4.10
2018-02-16T22:54:40.348Z,4.50
2018-02-16T22:57:08.272Z,4.95
2018-02-16T22:59:36.184Z,5.00
2018-02-16T23:02:05.096Z,5.53
2018-02-16T23:04:34.492Z,4.25
2018-02-16T23:07:02.387Z,5.15
2018-02-16T23:09:30.284Z,5.43
2018-02-16T23:11:58.188Z,3.78
2018-02-16T23:14:26.094Z,4.20
2018-02-16T23:16:54.007Z,4.35
2018-02-16T23:19:21.908Z,4.93
2018-02-16T23:21:49.824Z,4.50
2018-02-16T23:24:17.736Z,6.03
2018-02-16T23:26:45.612Z,4.60
2018-02-16T23:29:13.519Z,5.12
2018-02-16T23:31:41.399Z,4.90
2018-02-16T23:34:09.275Z,4.35
2018-02-16T23:36:37.199Z,4.10
2018-02-16T23:39:05.540Z,4.82
2018-02-16T23:41:33.603Z,4.35
2018-02-16T23:44:01.460Z,4.30
2018-02-16T23:46:29.352Z,4.55
2018-02-16T23:48:57.248Z,4.47
2018-02-16T23:51:25.153Z,4.35
2018-02-16T23:53:53.061Z,4.30
2018-02-16T23:56:20.950Z,5.60
2018-02-16T23:58:48.877Z,4.20
